createdAt,value
2019-02-16T00:00:24.127Z,2.85
2019-02-16T00:01:24.099Z,2.98
2019-02-16T00:02:24.082Z,3.03
2019-02-16T00:03:24.076Z,2.91
2019-02-16T00:04:24.042Z,3.01
2019-02-16T00:05:24.026Z,3.03
2019-02-16T00:06:24.003Z,2.95
2019-02-16T00:07:23.985Z,2.97
2019-02-16T00:08:23.966Z,2.97
2019-02-16T00:09:23.946Z,2.95
2019-02-16T00:10:23.924Z,2.94
2019-02-16T00:11:23.906Z,2.88
2019-02-16T00:12:23.886Z,2.80
2019-02-16T00:13:23.875Z,2.79
2019-02-16T00:14:23.848Z,2.77
2019-02-16T00:15:23.826Z,2.77
2019-02-16T00:16:23.811Z,2.76
2019-02-16T00:17:23.791Z,2.93
2019-02-16T00:18:23.769Z,3.00
2019-02-16T00:19:23.748Z,3.05
2019-02-16T00:20:23.732Z,3.08
2019-02-16T00:21:23.716Z,3.08
2019-02-16T00:22:23.690Z,3.15
2019-02-16T00:23:23.672Z,3.13
2019-02-16T00:24:23.653Z,3.16
2019-02-16T00:25:23.631Z,3.03
2019-02-16T00:26:23.611Z,3.09
2019-02-16T00:27:23.595Z,3.11
2019-02-16T00:28:23.590Z,3.15
2019-02-16T00:29:23.564Z,3.11
2019-02-16T00:30:23.537Z,3.16
2019-02-16T00:31:23.517Z,3.22
2019-02-16T00:32:23.505Z,3.21
2019-02-16T00:33:23.479Z,3.22
2019-02-16T00:34:23.469Z,3.26
2019-02-16T00:35:23.437Z,3.29
2019-02-16T00:36:23.424Z,3.33
2019-02-16T00:37:23.399Z,3.30
2019-02-16T00:38:23.389Z,3.26
2019-02-16T00:39:23.363Z,3.33
2019-02-16T00:40:23.347Z,3.31
2019-02-16T00:41:23.335Z,3.27
2019-02-16T00:42:23.302Z,3.37
2019-02-16T00:43:23.283Z,3.33
2019-02-16T00:44:23.274Z,3.24
2019-02-16T00:45:23.242Z,3.33
2019-02-16T00:46:23.231Z,3.29
2019-02-16T00:47:23.202Z,3.29
2019-02-16T00:48:23.188Z,3.33
2019-02-16T00:49:23.163Z,3.24
2019-02-16T00:50:23.151Z,3.37
2019-02-16T00:51:23.124Z,3.36
2019-02-16T00:52:23.099Z,3.34
2019-02-16T00:53:23.083Z,3.33
2019-02-16T00:54:23.066Z,3.37
2019-02-16T00:55:23.044Z,3.37
2019-02-16T00:56:23.026Z,3.43
2019-02-16T00:57:23.007Z,3.27
2019-02-16T00:58:22.989Z,3.34
2019-02-16T00:59:22.966Z,3.30
2019-02-16T01:00:22.955Z,3.27
2019-02-16T01:01:22.931Z,3.34
2019-02-16T01:02:22.912Z,3.19
2019-02-16T01:03:22.895Z,3.31
2019-02-16T01:04:22.873Z,3.24
2019-02-16T01:05:22.852Z,3.21
2019-02-16T01:06:22.832Z,3.18
2019-02-16T01:07:22.814Z,3.16
2019-02-16T01:08:22.793Z,3.16
2019-02-16T01:09:22.775Z,3.09
2019-02-16T01:10:22.760Z,3.13
2019-02-16T01:11:22.728Z,3.01
2019-02-16T01:12:22.723Z,3.00
2019-02-16T01:13:22.697Z,2.88
2019-02-16T01:14:22.676Z,2.95
2019-02-16T01:15:22.664Z,2.95
2019-02-16T01:16:22.639Z,2.85
2019-02-16T01:17:22.623Z,2.87
2019-02-16T01:18:22.600Z,2.76
2019-02-16T01:19:22.578Z,2.76
2019-02-16T01:20:22.558Z,2.76
2019-02-16T01:21:23.223Z,2.65
2019-02-16T01:22:22.527Z,2.57
2019-02-16T01:23:22.504Z,2.47
2019-02-16T01:24:22.488Z,2.36
2019-02-16T01:25:22.462Z,2.39
2019-02-16T01:26:22.453Z,2.46
2019-02-16T01:27:22.426Z,2.36
2019-02-16T01:28:22.404Z,2.40
2019-02-16T01:29:22.380Z,2.26
2019-02-16T01:30:22.363Z,2.25
2019-02-16T01:31:22.337Z,2.25
2019-02-16T01:32:22.338Z,2.28
2019-02-16T01:33:22.304Z,2.30
2019-02-16T01:34:22.284Z,2.28
2019-02-16T01:35:22.257Z,2.39
2019-02-16T01:36:22.237Z,2.39
2019-02-16T01:37:22.226Z,2.50
2019-02-16T01:38:22.208Z,2.64
2019-02-16T01:39:22.183Z,2.57
2019-02-16T01:40:22.166Z,2.69
2019-02-16T01:41:22.139Z,2.70
2019-02-16T01:42:22.123Z,2.69
2019-02-16T01:43:22.108Z,2.79
2019-02-16T01:44:22.085Z,2.76
2019-02-16T01:45:22.069Z,2.77
2019-02-16T01:46:22.047Z,2.88
2019-02-16T01:47:22.025Z,2.88
2019-02-16T01:48:22.009Z,2.87
2019-02-16T01:49:21.988Z,2.93
2019-02-16T01:50:21.977Z,2.91
2019-02-16T01:51:21.959Z,2.90
2019-02-16T01:52:21.931Z,2.88
2019-02-16T01:53:21.906Z,2.79
2019-02-16T01:54:21.884Z,2.77
2019-02-16T01:55:21.868Z,2.69
2019-02-16T01:56:21.847Z,2.76
2019-02-16T01:57:21.824Z,2.68
2019-02-16T01:58:21.807Z,2.75
2019-02-16T01:59:21.785Z,2.59
2019-02-16T02:00:21.768Z,2.69
2019-02-16T02:01:21.747Z,2.58
2019-02-16T02:02:21.732Z,2.70
2019-02-16T02:03:21.708Z,2.76
2019-02-16T02:04:21.686Z,2.73
2019-02-16T02:05:21.670Z,2.76
2019-02-16T02:06:21.649Z,2.90
2019-02-16T02:07:21.627Z,2.88
2019-02-16T02:08:21.607Z,2.94
2019-02-16T02:09:21.586Z,2.91
2019-02-16T02:10:21.566Z,2.95
2019-02-16T02:11:21.540Z,2.88
2019-02-16T02:12:21.528Z,2.94
2019-02-16T02:13:21.508Z,2.93
2019-02-16T02:14:21.492Z,2.93
2019-02-16T02:15:21.472Z,2.90
2019-02-16T02:16:21.447Z,2.94
2019-02-16T02:17:21.429Z,2.88
2019-02-16T02:18:21.407Z,2.91
2019-02-16T02:19:21.387Z,2.82
2019-02-16T02:20:21.370Z,2.79
2019-02-16T02:21:21.346Z,2.77
2019-02-16T02:22:21.328Z,2.70
2019-02-16T02:23:21.301Z,2.62
2019-02-16T02:24:21.289Z,2.52
2019-02-16T02:25:21.284Z,2.57
2019-02-16T02:26:21.249Z,2.47
2019-02-16T02:27:21.230Z,2.51
2019-02-16T02:28:21.225Z,2.39
2019-02-16T02:29:21.190Z,2.43
2019-02-16T02:30:21.168Z,2.33
2019-02-16T02:31:21.148Z,2.32
2019-02-16T02:32:21.132Z,2.23
2019-02-16T02:33:21.129Z,2.08
2019-02-16T02:34:21.089Z,2.01
2019-02-16T02:35:21.069Z,2.00
2019-02-16T02:36:21.065Z,1.95
2019-02-16T02:37:21.034Z,1.86
2019-02-16T02:38:21.022Z,1.82
2019-02-16T02:39:20.991Z,1.74
2019-02-16T02:40:20.970Z,1.68
2019-02-16T02:41:20.954Z,1.70
2019-02-16T02:42:20.937Z,1.52
2019-02-16T02:43:20.928Z,1.50
2019-02-16T02:44:20.890Z,1.46
2019-02-16T02:45:20.873Z,1.40
2019-02-16T02:46:20.850Z,1.34
2019-02-16T02:47:20.828Z,1.27
2019-02-16T02:48:20.821Z,1.20
2019-02-16T02:49:20.792Z,1.12
2019-02-16T02:50:20.768Z,1.02
2019-02-16T02:51:20.748Z,1.03
2019-02-16T02:52:20.731Z,0.88
2019-02-16T02:53:30.267Z,0.89
2019-02-16T02:54:20.687Z,0.78
2019-02-16T02:55:20.667Z,0.86
2019-02-16T02:56:20.645Z,0.78
2019-02-16T02:57:20.630Z,0.84
2019-02-16T02:58:20.604Z,0.74
2019-02-16T02:59:20.581Z,0.76
2019-02-16T03:00:20.563Z,0.66
2019-02-16T03:01:20.545Z,0.64
2019-02-16T03:02:20.521Z,0.63
2019-02-16T03:03:20.500Z,0.51
2019-02-16T03:04:20.485Z,0.51
2019-02-16T03:05:20.466Z,0.51
2019-02-16T03:06:20.445Z,0.45
2019-02-16T03:07:20.428Z,0.47
2019-02-16T03:08:20.398Z,0.39
2019-02-16T03:09:20.380Z,0.34
2019-02-16T03:10:20.353Z,0.34
2019-02-16T03:11:20.340Z,0.19
2019-02-16T03:12:20.313Z,0.20
2019-02-16T03:13:20.295Z,0.20
2019-02-16T03:14:20.274Z,0.26
2019-02-16T03:15:20.254Z,0.13
2019-02-16T03:16:20.230Z,0.18
2019-02-16T03:17:20.225Z,0.15
2019-02-16T03:18:20.194Z,0.15
2019-02-16T03:19:20.170Z,0.15
2019-02-16T03:20:20.150Z,0.16
2019-02-16T03:21:20.135Z,0.16
2019-02-16T03:22:20.118Z,0.13
2019-02-16T03:23:20.086Z,0.16
2019-02-16T03:24:20.067Z,0.15
2019-02-16T03:25:20.056Z,0.16
2019-02-16T03:26:20.025Z,0.16
2019-02-16T03:27:20.003Z,0.13
2019-02-16T03:28:19.993Z,0.13
2019-02-16T03:29:19.970Z,0.20
2019-02-16T03:30:19.940Z,0.19
2019-02-16T03:31:19.926Z,0.15
2019-02-16T03:32:19.902Z,0.20
2019-02-16T03:33:19.922Z,0.20
2019-02-16T03:34:19.869Z,0.09
2019-02-16T03:35:19.895Z,0.23
2019-02-16T03:36:19.881Z,0.23
2019-02-16T03:37:19.902Z,0.24
2019-02-16T03:38:19.782Z,0.29
2019-02-16T03:39:19.772Z,0.37
2019-02-16T03:40:19.752Z,0.42
2019-02-16T03:41:19.719Z,0.49
2019-02-16T03:42:19.694Z,0.40
2019-02-16T03:43:19.687Z,0.51
2019-02-16T03:44:19.657Z,0.63
2019-02-16T03:45:19.627Z,0.73
2019-02-16T03:46:19.606Z,0.77
2019-02-16T03:47:19.587Z,0.94
2019-02-16T03:48:19.570Z,0.91
2019-02-16T03:49:19.547Z,0.99
2019-02-16T03:50:19.524Z,1.09
2019-02-16T03:51:19.509Z,1.12
2019-02-16T03:52:19.490Z,1.10
2019-02-16T03:53:19.467Z,1.22
2019-02-16T03:54:19.445Z,1.25
2019-02-16T03:55:19.421Z,1.27
2019-02-16T03:56:19.398Z,1.32
2019-02-16T03:57:19.381Z,1.28
2019-02-16T03:58:19.367Z,1.21
2019-02-16T03:59:19.342Z,1.14
2019-02-16T04:00:19.326Z,1.14
2019-02-16T04:01:19.299Z,1.20
2019-02-16T04:02:19.274Z,1.21
2019-02-16T04:03:19.262Z,1.20
2019-02-16T04:04:19.239Z,1.18
2019-02-16T04:05:19.218Z,1.12
2019-02-16T04:06:19.202Z,1.10
2019-02-16T04:07:19.172Z,1.09
2019-02-16T04:08:19.157Z,1.06
2019-02-16T04:09:19.135Z,0.95
2019-02-16T04:10:19.114Z,0.95
2019-02-16T04:11:19.093Z,0.92
2019-02-16T04:12:19.077Z,0.89
2019-02-16T04:13:19.052Z,0.86
2019-02-16T04:14:19.032Z,0.86
2019-02-16T04:15:19.014Z,0.88
2019-02-16T04:16:18.985Z,0.89
2019-02-16T04:17:18.969Z,0.84
2019-02-16T04:18:18.948Z,0.77
2019-02-16T04:19:18.925Z,0.77
2019-02-16T04:20:18.906Z,0.68
2019-02-16T04:21:18.887Z,0.67
2019-02-16T04:22:24.524Z,0.66
2019-02-16T04:23:18.847Z,0.49
2019-02-16T04:24:18.825Z,0.51
2019-02-16T04:25:18.808Z,0.47
2019-02-16T04:26:18.782Z,0.48
2019-02-16T04:27:18.763Z,0.40
2019-02-16T04:28:18.744Z,0.39
2019-02-16T04:29:18.721Z,0.24
2019-02-16T04:30:18.701Z,0.27
2019-02-16T04:31:18.680Z,0.18
2019-02-16T04:32:18.662Z,0.23
2019-02-16T04:33:18.636Z,0.15
2019-02-16T04:34:18.617Z,0.11
2019-02-16T04:35:18.596Z,0.06
2019-02-16T04:36:18.573Z,0.00
2019-02-16T04:37:18.566Z,-0.02
2019-02-16T04:38:18.546Z,0.00
2019-02-16T04:39:18.514Z,-0.09
2019-02-16T04:40:18.489Z,-0.12
2019-02-16T04:41:18.557Z,-0.18
2019-02-16T04:42:18.451Z,-0.28
2019-02-16T04:43:18.429Z,-0.28
2019-02-16T04:44:18.406Z,-0.31
2019-02-16T04:45:18.388Z,-0.36
2019-02-16T04:46:18.368Z,-0.36
2019-02-16T04:47:18.344Z,-0.46
2019-02-16T04:48:18.323Z,-0.48
2019-02-16T04:49:18.317Z,-0.63
2019-02-16T04:50:18.275Z,-0.59
2019-02-16T04:51:18.262Z,-0.60
2019-02-16T04:52:18.242Z,-0.60
2019-02-16T04:53:18.216Z,-0.67
2019-02-16T04:54:18.199Z,-0.66
2019-02-16T04:55:18.176Z,-0.57
2019-02-16T04:56:18.158Z,-0.69
2019-02-16T04:57:18.128Z,-0.60
2019-02-16T04:58:18.110Z,-0.62
2019-02-16T04:59:18.095Z,-0.70
2019-02-16T05:00:18.071Z,-0.69
2019-02-16T05:01:18.050Z,-0.74
2019-02-16T05:02:18.025Z,-0.75
2019-02-16T05:03:18.004Z,-0.77
2019-02-16T05:04:17.980Z,-0.75
2019-02-16T05:05:17.966Z,-0.78
2019-02-16T05:06:17.952Z,-0.81
2019-02-16T05:07:17.915Z,-0.78
2019-02-16T05:08:17.898Z,-0.78
2019-02-16T05:09:17.884Z,-0.84
2019-02-16T05:10:17.861Z,-0.84
2019-02-16T05:11:17.831Z,-0.84
2019-02-16T05:12:17.810Z,-0.77
2019-02-16T05:13:17.789Z,-0.74
2019-02-16T05:14:17.781Z,-0.80
2019-02-16T05:15:17.745Z,-0.84
2019-02-16T05:16:17.728Z,-0.80
2019-02-16T05:17:17.705Z,-0.89
2019-02-16T05:18:17.686Z,-0.78
2019-02-16T05:19:17.660Z,-0.75
2019-02-16T05:20:17.642Z,-0.81
2019-02-16T05:21:17.614Z,-0.81
2019-02-16T05:22:17.596Z,-0.80
2019-02-16T05:23:17.585Z,-0.70
2019-02-16T05:24:17.547Z,-0.77
2019-02-16T05:25:17.533Z,-0.75
2019-02-16T05:26:17.510Z,-0.85
2019-02-16T05:27:17.489Z,-0.80
2019-02-16T05:28:17.466Z,-0.81
2019-02-16T05:29:17.447Z,-0.81
2019-02-16T05:30:17.426Z,-0.77
2019-02-16T05:31:17.431Z,-0.85
2019-02-16T05:32:17.378Z,-0.89
2019-02-16T05:33:17.362Z,-0.82
2019-02-16T05:34:17.338Z,-0.81
2019-02-16T05:35:17.315Z,-0.84
2019-02-16T05:36:17.293Z,-0.81
2019-02-16T05:37:17.275Z,-0.80
2019-02-16T05:38:17.257Z,-0.94
2019-02-16T05:39:17.233Z,-0.84
2019-02-16T05:40:17.213Z,-0.78
2019-02-16T05:41:17.186Z,-0.80
2019-02-16T05:42:17.175Z,-0.69
2019-02-16T05:43:17.196Z,-0.75
2019-02-16T05:44:17.128Z,-0.78
2019-02-16T05:45:17.108Z,-0.78
2019-02-16T05:46:17.077Z,-0.78
2019-02-16T05:47:17.065Z,-0.75
2019-02-16T05:48:17.037Z,-0.91
2019-02-16T05:49:17.030Z,-0.85
2019-02-16T05:50:16.991Z,-0.89
2019-02-16T05:51:16.970Z,-0.87
2019-02-16T05:52:16.960Z,-0.84
2019-02-16T05:53:16.928Z,-0.81
2019-02-16T05:54:16.910Z,-0.82
2019-02-16T05:55:16.888Z,-0.84
2019-02-16T05:56:16.871Z,-0.97
2019-02-16T05:57:16.853Z,-0.93
2019-02-16T05:58:16.827Z,-0.91
2019-02-16T05:59:16.803Z,-0.97
2019-02-16T06:00:16.786Z,-0.91
2019-02-16T06:01:16.767Z,-1.15
2019-02-16T06:02:16.732Z,-0.96
2019-02-16T06:03:16.712Z,-1.04
2019-02-16T06:04:16.702Z,-1.14
2019-02-16T06:05:16.684Z,-1.15
2019-02-16T06:06:16.654Z,-0.96
2019-02-16T06:07:16.629Z,-1.07
2019-02-16T06:08:16.600Z,-1.07
2019-02-16T06:09:16.582Z,-1.12
2019-02-16T06:10:16.570Z,-1.09
2019-02-16T06:11:16.540Z,-1.14
2019-02-16T06:12:16.517Z,-1.03
2019-02-16T06:13:16.503Z,-1.09
2019-02-16T06:14:16.479Z,-1.14
2019-02-16T06:15:16.453Z,-1.07
2019-02-16T06:16:16.431Z,-1.12
2019-02-16T06:17:16.410Z,-1.00
2019-02-16T06:18:16.398Z,-1.12
2019-02-16T06:19:16.368Z,-1.15
2019-02-16T06:20:16.360Z,-1.15
2019-02-16T06:21:16.331Z,-1.12
2019-02-16T06:22:16.303Z,-1.01
2019-02-16T06:23:16.280Z,-1.17
2019-02-16T06:24:16.262Z,-1.11
2019-02-16T06:25:16.255Z,-1.09
2019-02-16T06:26:16.216Z,-1.12
2019-02-16T06:27:16.191Z,-1.14
2019-02-16T06:28:16.168Z,-1.19
2019-02-16T06:29:16.150Z,-1.17
2019-02-16T06:30:16.137Z,-1.18
2019-02-16T06:31:16.104Z,-1.27
2019-02-16T06:32:16.083Z,-1.24
2019-02-16T06:33:16.058Z,-1.21
2019-02-16T06:34:16.053Z,-1.22
2019-02-16T06:35:16.015Z,-1.32
2019-02-16T06:36:16.001Z,-1.25
2019-02-16T06:37:15.983Z,-1.29
2019-02-16T06:38:15.962Z,-1.33
2019-02-16T06:39:15.935Z,-1.30
2019-02-16T06:40:15.912Z,-1.15
2019-02-16T06:41:15.890Z,-1.14
2019-02-16T06:42:15.864Z,-1.19
2019-02-16T06:43:15.916Z,-1.18
2019-02-16T06:44:15.835Z,-1.07
2019-02-16T06:45:15.800Z,-1.18
2019-02-16T06:46:15.791Z,-1.21
2019-02-16T06:47:15.764Z,-1.19
2019-02-16T06:48:15.736Z,-1.14
2019-02-16T06:49:15.715Z,-1.14
2019-02-16T06:50:15.696Z,-1.19
2019-02-16T06:51:15.666Z,-1.33
2019-02-16T06:52:15.668Z,-1.15
2019-02-16T06:53:15.629Z,-1.22
2019-02-16T06:54:15.605Z,-1.21
2019-02-16T06:55:15.583Z,-1.21
2019-02-16T06:56:15.565Z,-1.19
2019-02-16T06:57:15.551Z,-1.21
2019-02-16T06:58:15.518Z,-1.12
2019-02-16T06:59:15.499Z,-1.18
2019-02-16T07:00:15.483Z,-1.19
2019-02-16T07:01:15.453Z,-1.17
2019-02-16T07:02:15.429Z,-1.14
2019-02-16T07:03:15.413Z,-1.18
2019-02-16T07:04:15.391Z,-1.18
2019-02-16T07:05:15.369Z,-1.06
2019-02-16T07:06:15.354Z,-1.17
2019-02-16T07:07:15.325Z,-1.11
2019-02-16T07:08:15.312Z,-1.15
2019-02-16T07:09:15.280Z,-1.11
2019-02-16T07:10:15.269Z,-1.12
2019-02-16T07:11:15.260Z,-1.14
2019-02-16T07:12:15.220Z,-1.03
2019-02-16T07:13:15.201Z,-1.14
2019-02-16T07:14:15.176Z,-1.06
2019-02-16T07:15:15.152Z,-1.03
2019-02-16T07:16:15.131Z,-1.00
2019-02-16T07:17:15.110Z,-1.12
2019-02-16T07:18:15.086Z,-1.03
2019-02-16T07:19:15.065Z,-1.01
2019-02-16T07:20:15.059Z,-0.93
2019-02-16T07:21:15.024Z,-0.81
2019-02-16T07:22:15.030Z,-0.78
2019-02-16T07:23:22.159Z,-0.81
2019-02-16T07:24:14.967Z,-0.78
2019-02-16T07:25:14.939Z,-0.70
2019-02-16T07:26:14.919Z,-0.67
2019-02-16T07:27:14.894Z,-0.60
2019-02-16T07:28:14.917Z,-0.62
2019-02-16T07:29:14.851Z,-0.62
2019-02-16T07:30:14.840Z,-0.62
2019-02-16T07:31:15.969Z,-0.49
2019-02-16T07:32:14.789Z,-0.33
2019-02-16T07:33:14.771Z,-0.44
2019-02-16T07:34:14.743Z,-0.38
2019-02-16T07:35:14.729Z,-0.26
2019-02-16T07:36:14.709Z,-0.20
2019-02-16T07:37:14.686Z,-0.05
2019-02-16T07:38:14.666Z,-0.09
2019-02-16T07:39:14.649Z,-0.02
2019-02-16T07:40:14.621Z,0.19
2019-02-16T07:41:14.601Z,0.29
2019-02-16T07:42:14.573Z,0.36
2019-02-16T07:43:14.557Z,0.42
2019-02-16T07:44:14.541Z,0.52
2019-02-16T07:45:14.519Z,0.63
2019-02-16T07:46:14.495Z,0.76
2019-02-16T07:47:14.476Z,0.74
2019-02-16T07:48:14.461Z,0.92
2019-02-16T07:49:14.440Z,0.86
2019-02-16T07:50:14.416Z,1.03
2019-02-16T07:51:14.398Z,1.00
2019-02-16T07:52:14.393Z,1.14
2019-02-16T07:53:14.352Z,1.25
2019-02-16T07:54:14.343Z,1.34
2019-02-16T07:55:14.324Z,1.36
2019-02-16T07:56:14.301Z,1.49
2019-02-16T07:57:14.307Z,1.57
2019-02-16T07:58:14.256Z,1.64
2019-02-16T07:59:14.262Z,1.74
2019-02-16T08:00:14.218Z,1.75
2019-02-16T08:01:14.245Z,1.98
2019-02-16T08:02:14.177Z,2.01
2019-02-16T08:03:14.213Z,2.15
2019-02-16T08:04:14.142Z,2.26
2019-02-16T08:05:14.185Z,2.39
2019-02-16T08:06:14.100Z,2.47
2019-02-16T08:07:14.164Z,2.55
2019-02-16T08:08:14.071Z,2.59
2019-02-16T08:09:14.062Z,2.70
2019-02-16T08:10:14.030Z,2.75
2019-02-16T08:11:14.025Z,2.82
2019-02-16T08:12:13.992Z,2.90
2019-02-16T08:13:14.091Z,3.05
2019-02-16T08:14:13.957Z,3.09
2019-02-16T08:15:13.961Z,3.15
2019-02-16T08:16:13.912Z,3.12
2019-02-16T08:17:13.893Z,3.29
2019-02-16T08:18:13.878Z,3.33
2019-02-16T08:19:13.860Z,3.34
2019-02-16T08:20:13.840Z,3.49
2019-02-16T08:21:13.812Z,3.66
2019-02-16T08:22:13.802Z,3.70
2019-02-16T08:23:13.787Z,3.78
2019-02-16T08:24:13.764Z,3.86
2019-02-16T08:25:13.744Z,3.85
2019-02-16T08:26:13.720Z,3.92
2019-02-16T08:27:13.707Z,4.03
2019-02-16T08:28:13.694Z,4.16
2019-02-16T08:29:13.672Z,4.16
2019-02-16T08:30:13.654Z,4.20
2019-02-16T08:31:13.640Z,4.34
2019-02-16T08:32:13.616Z,4.45
2019-02-16T08:33:13.595Z,4.50
2019-02-16T08:34:13.579Z,4.63
2019-02-16T08:35:13.599Z,4.70
2019-02-16T08:36:13.542Z,4.78
2019-02-16T08:37:13.527Z,4.82
2019-02-16T08:38:13.519Z,4.92
2019-02-16T08:39:13.489Z,5.00
2019-02-16T08:40:13.474Z,5.16
2019-02-16T08:41:13.462Z,5.16
2019-02-16T08:42:13.446Z,5.28
2019-02-16T08:43:13.419Z,5.34
2019-02-16T08:44:13.407Z,5.40
2019-02-16T08:45:13.385Z,5.49
2019-02-16T08:46:13.370Z,5.55
2019-02-16T08:47:13.346Z,5.73
2019-02-16T08:48:13.340Z,5.79
2019-02-16T08:49:13.314Z,5.87
2019-02-16T08:50:13.295Z,6.06
2019-02-16T08:51:13.296Z,6.17
2019-02-16T08:52:13.267Z,6.36
2019-02-16T08:53:13.245Z,6.60
2019-02-16T08:54:13.237Z,6.77
2019-02-16T08:55:13.218Z,6.82
2019-02-16T08:56:13.198Z,7.00
2019-02-16T08:57:13.186Z,7.05
2019-02-16T08:58:13.161Z,7.31
2019-02-16T08:59:13.152Z,7.44
2019-02-16T09:00:13.144Z,7.48
2019-02-16T09:01:13.117Z,7.78
2019-02-16T09:02:13.103Z,7.85
2019-02-16T09:03:13.088Z,7.96
2019-02-16T09:04:13.079Z,8.08
2019-02-16T09:05:13.067Z,8.23
2019-02-16T09:06:13.047Z,8.41
2019-02-16T09:07:13.026Z,8.56
2019-02-16T09:08:13.011Z,8.84
2019-02-16T09:09:12.998Z,8.86
2019-02-16T09:10:12.971Z,9.16
2019-02-16T09:11:21.933Z,9.42
2019-02-16T09:13:05.873Z,9.81
2019-02-16T09:14:05.815Z,9.97
2019-02-16T09:15:58.679Z,10.48
2019-02-16T09:16:58.677Z,10.55
2019-02-16T09:18:05.834Z,10.77
2019-02-16T09:19:52.566Z,11.22
2019-02-16T09:20:52.498Z,11.30
2019-02-16T09:22:45.372Z,11.53
2019-02-16T09:23:45.348Z,11.70
2019-02-16T09:25:38.199Z,12.07
2019-02-16T09:26:38.185Z,12.25
2019-02-16T09:27:38.171Z,12.47
2019-02-16T09:28:38.181Z,12.66
2019-02-16T09:29:38.147Z,12.76
2019-02-16T09:30:38.130Z,13.01
2019-02-16T09:31:38.118Z,13.24
2019-02-16T09:32:38.095Z,13.28
2019-02-16T09:33:38.085Z,13.61
2019-02-16T09:34:38.072Z,13.75
2019-02-16T09:35:38.064Z,13.80
2019-02-16T09:36:38.048Z,13.93
2019-02-16T09:37:38.051Z,13.87
2019-02-16T09:38:38.059Z,13.85
2019-02-16T09:39:38.005Z,13.97
2019-02-16T09:40:37.991Z,14.03
2019-02-16T09:41:37.997Z,14.04
2019-02-16T09:42:37.967Z,14.23
2019-02-16T09:43:37.955Z,14.20
2019-02-16T09:44:37.941Z,14.36
2019-02-16T09:45:37.931Z,14.41
2019-02-16T09:46:37.913Z,14.51
2019-02-16T09:47:37.909Z,14.53
2019-02-16T09:48:37.888Z,14.55
2019-02-16T09:49:37.893Z,14.70
2019-02-16T09:50:37.866Z,14.85
2019-02-16T09:51:37.848Z,15.07
2019-02-16T09:52:37.839Z,15.15
2019-02-16T09:53:37.827Z,15.41
2019-02-16T09:54:37.815Z,15.57
2019-02-16T09:55:37.800Z,15.66
2019-02-16T09:56:37.782Z,15.92
2019-02-16T09:57:37.803Z,16.05
2019-02-16T09:58:37.767Z,16.21
2019-02-16T09:59:37.754Z,16.39
2019-02-16T10:00:37.750Z,16.50
2019-02-16T10:01:37.738Z,16.64
2019-02-16T10:02:37.745Z,16.66
2019-02-16T10:03:44.885Z,16.83
2019-02-16T10:05:37.761Z,16.82
2019-02-16T10:06:37.817Z,16.82
2019-02-16T10:08:23.428Z,16.97
2019-02-16T10:09:30.619Z,16.98
2019-02-16T10:11:23.473Z,17.13
2019-02-16T10:12:23.458Z,17.32
2019-02-16T10:14:16.349Z,17.52
2019-02-16T10:15:16.300Z,17.68
2019-02-16T10:17:01.995Z,17.72
2019-02-16T10:18:09.166Z,17.75
2019-02-16T10:19:54.866Z,17.78
2019-02-16T10:21:02.045Z,17.86
2019-02-16T10:22:47.734Z,17.88
2019-02-16T10:23:47.704Z,17.84
2019-02-16T10:25:40.594Z,17.66
2019-02-16T10:26:47.785Z,17.69
2019-02-16T10:28:33.453Z,17.80
2019-02-16T10:29:33.457Z,17.86
2019-02-16T10:31:26.320Z,17.95
2019-02-16T10:32:26.297Z,18.09
2019-02-16T10:34:19.178Z,18.19
2019-02-16T10:35:19.151Z,18.31
2019-02-16T10:36:19.138Z,18.41
2019-02-16T10:37:19.139Z,18.58
2019-02-16T10:38:19.133Z,18.57
2019-02-16T10:39:19.124Z,18.71
2019-02-16T10:40:19.109Z,18.89
2019-02-16T10:41:19.097Z,18.91
2019-02-16T10:42:19.093Z,19.04
2019-02-16T10:43:19.079Z,19.00
2019-02-16T10:44:19.066Z,19.01
2019-02-16T10:45:19.065Z,19.05
2019-02-16T10:46:19.049Z,19.12
2019-02-16T10:47:19.036Z,19.16
2019-02-16T10:48:19.024Z,19.27
2019-02-16T10:49:19.073Z,19.22
2019-02-16T10:50:19.021Z,19.20
2019-02-16T10:51:19.000Z,19.26
2019-02-16T10:52:18.994Z,19.34
2019-02-16T10:53:19.027Z,19.37
2019-02-16T10:54:27.036Z,19.49
2019-02-16T10:55:18.963Z,19.59
2019-02-16T10:56:18.977Z,19.59
2019-02-16T10:57:18.940Z,19.56
2019-02-16T10:58:18.939Z,19.47
2019-02-16T10:59:18.932Z,19.45
2019-02-16T11:00:18.925Z,19.41
2019-02-16T11:01:18.910Z,19.37
2019-02-16T11:02:18.904Z,19.35
2019-02-16T11:03:18.893Z,19.35
2019-02-16T11:04:18.889Z,19.59
2019-02-16T11:05:18.873Z,19.59
2019-02-16T11:06:18.866Z,19.72
2019-02-16T11:07:18.858Z,19.90
2019-02-16T11:08:18.851Z,19.92
2019-02-16T11:09:18.838Z,20.03
2019-02-16T11:10:18.832Z,20.17
2019-02-16T11:11:18.830Z,20.17
2019-02-16T11:12:18.814Z,20.24
2019-02-16T11:13:18.812Z,20.40
2019-02-16T11:14:18.810Z,20.56
2019-02-16T11:15:18.798Z,20.68
2019-02-16T11:16:18.787Z,20.80
2019-02-16T11:17:18.775Z,20.86
2019-02-16T11:18:18.766Z,21.07
2019-02-16T11:19:18.759Z,21.14
2019-02-16T11:20:18.752Z,21.14
2019-02-16T11:21:18.741Z,21.11
2019-02-16T11:22:18.734Z,21.26
2019-02-16T11:23:18.730Z,21.26
2019-02-16T11:24:18.715Z,21.43
2019-02-16T11:25:18.713Z,21.35
2019-02-16T11:26:18.708Z,21.23
2019-02-16T11:27:18.697Z,21.13
2019-02-16T11:28:18.688Z,21.19
2019-02-16T11:29:18.682Z,21.25
2019-02-16T11:30:18.682Z,21.28
2019-02-16T11:31:18.664Z,21.23
2019-02-16T11:32:18.659Z,21.35
2019-02-16T11:33:18.653Z,21.33
2019-02-16T11:34:18.643Z,21.44
2019-02-16T11:35:18.638Z,21.37
2019-02-16T11:36:18.633Z,21.25
2019-02-16T11:37:18.634Z,21.19
2019-02-16T11:38:18.615Z,21.19
2019-02-16T11:39:18.610Z,21.20
2019-02-16T11:40:18.602Z,21.17
2019-02-16T11:41:19.362Z,21.04
2019-02-16T11:42:18.587Z,20.93
2019-02-16T11:43:18.586Z,20.88
2019-02-16T11:44:18.592Z,20.78
2019-02-16T11:45:18.562Z,20.88
2019-02-16T11:46:18.559Z,21.05
2019-02-16T11:47:18.603Z,21.10
2019-02-16T11:48:18.543Z,21.29
2019-02-16T11:49:18.543Z,21.43
2019-02-16T11:50:18.534Z,21.63
2019-02-16T11:51:18.524Z,21.68
2019-02-16T11:52:18.520Z,21.74
2019-02-16T11:53:18.523Z,21.84
2019-02-16T11:54:18.506Z,22.00
2019-02-16T11:55:18.498Z,21.97
2019-02-16T11:56:18.493Z,21.97
2019-02-16T11:57:18.488Z,22.16
2019-02-16T11:58:18.479Z,22.23
2019-02-16T11:59:18.490Z,22.26
2019-02-16T12:00:18.457Z,22.36
2019-02-16T12:01:18.454Z,22.47
2019-02-16T12:02:18.461Z,22.43
2019-02-16T12:03:19.229Z,22.59
2019-02-16T12:04:18.445Z,22.52
2019-02-16T12:05:18.447Z,22.61
2019-02-16T12:06:18.455Z,22.74
2019-02-16T12:07:18.429Z,22.76
2019-02-16T12:08:18.415Z,22.70
2019-02-16T12:09:18.413Z,22.70
2019-02-16T12:10:18.427Z,22.73
2019-02-16T12:11:18.397Z,22.83
2019-02-16T12:12:18.392Z,22.84
2019-02-16T12:13:18.453Z,22.99
2019-02-16T12:14:18.386Z,23.02
2019-02-16T12:15:18.385Z,23.11
2019-02-16T12:16:18.391Z,23.23
2019-02-16T12:17:18.366Z,23.26
2019-02-16T12:18:18.367Z,23.13
2019-02-16T12:19:18.353Z,23.17
2019-02-16T12:20:18.363Z,23.16
2019-02-16T12:21:18.347Z,23.14
2019-02-16T12:22:18.336Z,23.20
2019-02-16T12:23:18.332Z,23.29
2019-02-16T12:24:18.326Z,23.33
2019-02-16T12:25:18.320Z,23.47
2019-02-16T12:26:18.314Z,23.48
2019-02-16T12:27:18.304Z,23.45
2019-02-16T12:28:18.298Z,23.47
2019-02-16T12:29:18.301Z,23.40
2019-02-16T12:30:18.303Z,23.47
2019-02-16T12:31:18.290Z,23.69
2019-02-16T12:32:18.293Z,23.70
2019-02-16T12:33:18.279Z,23.94
2019-02-16T12:34:18.274Z,24.06
2019-02-16T12:35:18.264Z,24.11
2019-02-16T12:36:18.262Z,24.16
2019-02-16T12:37:18.263Z,24.13
2019-02-16T12:38:18.262Z,24.10
2019-02-16T12:39:18.260Z,24.13
2019-02-16T12:40:18.241Z,24.16
2019-02-16T12:41:18.238Z,24.11
2019-02-16T12:42:18.229Z,24.25
2019-02-16T12:43:18.226Z,24.24
2019-02-16T12:44:18.222Z,24.40
2019-02-16T12:45:18.219Z,24.41
2019-02-16T12:46:18.218Z,24.65
2019-02-16T12:47:18.208Z,24.74
2019-02-16T12:48:18.206Z,24.69
2019-02-16T12:49:18.202Z,24.78
2019-02-16T12:50:18.194Z,24.86
2019-02-16T12:51:18.197Z,25.00
2019-02-16T12:52:18.184Z,25.16
2019-02-16T12:53:18.176Z,25.19
2019-02-16T12:54:18.180Z,25.22
2019-02-16T12:55:18.171Z,25.30
2019-02-16T12:56:18.172Z,25.22
2019-02-16T12:57:18.182Z,25.16
2019-02-16T12:58:18.162Z,25.15
2019-02-16T12:59:18.176Z,25.21
2019-02-16T13:00:18.167Z,25.26
2019-02-16T13:01:18.142Z,25.25
2019-02-16T13:02:18.146Z,25.34
2019-02-16T13:03:18.141Z,25.54
2019-02-16T13:04:18.185Z,25.58
2019-02-16T13:05:18.131Z,25.56
2019-02-16T13:06:18.129Z,25.59
2019-02-16T13:07:18.129Z,25.59
2019-02-16T13:08:18.127Z,25.58
2019-02-16T13:09:18.118Z,25.62
2019-02-16T13:10:18.121Z,25.70
2019-02-16T13:11:18.116Z,25.78
2019-02-16T13:12:18.110Z,25.98
2019-02-16T13:13:18.116Z,26.04
2019-02-16T13:14:18.098Z,26.07
2019-02-16T13:15:18.088Z,26.03
2019-02-16T13:16:18.093Z,26.18
2019-02-16T13:17:18.091Z,26.23
2019-02-16T13:18:18.080Z,26.16